createdAt,value
2018-12-21T00:02:21.056Z,93.01
2018-12-21T00:04:51.078Z,93.42
2018-12-21T00:07:21.085Z,93.29
2018-12-21T00:09:51.193Z,93.62
2018-12-21T00:12:21.192Z,93.24
2018-12-21T00:14:51.197Z,93.56
2018-12-21T00:17:21.253Z,93.46
2018-12-21T00:19:51.286Z,94.15
2018-12-21T00:22:21.355Z,94.16
2018-12-21T00:24:51.344Z,93.98
2018-12-21T00:27:21.632Z,94.43
2018-12-21T00:29:51.644Z,94.78
2018-12-21T00:32:26.994Z,94.44
2018-12-21T00:35:02.356Z,94.69
2018-12-21T00:37:37.828Z,94.57
2018-12-21T00:40:13.308Z,94.90
2018-12-21T00:42:51.729Z,94.70
2018-12-21T00:45:26.974Z,94.42
2018-12-21T00:47:57.107Z,94.62
2018-12-21T00:50:27.589Z,94.47
2018-12-21T00:52:58.000Z,94.75
2018-12-21T00:55:28.126Z,94.98
2018-12-21T00:57:58.150Z,94.81
2018-12-21T01:00:28.292Z,94.73
2018-12-21T01:02:58.305Z,95.26
2018-12-21T01:05:28.362Z,95.27
2018-12-21T01:07:58.473Z,95.47
2018-12-21T01:10:28.514Z,95.06
2018-12-21T01:13:20.186Z,94.94
2018-12-21T01:15:50.314Z,95.25
2018-12-21T01:18:24.016Z,95.02
2018-12-21T01:20:54.672Z,95.37
2018-12-21T01:23:27.376Z,95.33
2018-12-21T01:25:57.490Z,95.45
2018-12-21T01:28:28.650Z,95.75
2018-12-21T01:30:59.473Z,95.51
2018-12-21T01:33:33.275Z,95.22
2018-12-21T01:36:03.990Z,94.70
2018-12-21T01:38:34.670Z,94.89
2018-12-21T01:41:05.465Z,94.48
2018-12-21T01:43:35.604Z,93.96
2018-12-21T01:46:05.620Z,94.24
2018-12-21T01:48:36.533Z,93.73
2018-12-21T01:51:08.151Z,94.59
2018-12-21T01:53:38.792Z,94.05
2018-12-21T01:56:09.339Z,94.01
2018-12-21T01:58:40.093Z,94.52
2018-12-21T02:01:13.461Z,94.71
2018-12-21T02:03:44.836Z,94.65
2018-12-21T02:06:18.615Z,94.67
2018-12-21T02:08:50.927Z,94.72
2018-12-21T02:11:22.719Z,95.16
2018-12-21T02:13:53.798Z,95.67
2018-12-21T02:16:29.045Z,95.64
2018-12-21T02:18:59.444Z,94.65
2018-12-21T02:21:32.084Z,95.22
2018-12-21T02:24:02.505Z,95.12
2018-12-21T02:26:33.021Z,94.86
2018-12-21T02:29:03.732Z,95.01
2018-12-21T02:31:33.801Z,94.90
2018-12-21T02:34:04.713Z,94.30
2018-12-21T02:36:34.731Z,94.23
2018-12-21T02:39:07.052Z,93.69
2018-12-21T02:41:39.834Z,93.18
2018-12-21T02:44:09.844Z,93.49
2018-12-21T02:46:40.839Z,93.43
2018-12-21T02:49:11.922Z,93.69
2018-12-21T02:51:44.893Z,93.36
2018-12-21T02:54:22.140Z,93.48
2018-12-21T02:56:54.876Z,94.23
2018-12-21T02:59:25.806Z,94.25
2018-12-21T03:01:57.876Z,93.96
2018-12-21T03:04:34.892Z,94.55
2018-12-21T03:07:05.203Z,94.37
2018-12-21T03:09:38.131Z,94.58
2018-12-21T03:12:08.945Z,94.64
2018-12-21T03:14:38.969Z,94.60
2018-12-21T03:17:10.312Z,94.65
2018-12-21T03:19:41.001Z,94.53
2018-12-21T03:22:15.119Z,94.63
2018-12-21T03:24:48.169Z,94.53
2018-12-21T03:27:18.993Z,95.06
2018-12-21T03:29:49.026Z,94.85
2018-12-21T03:32:19.831Z,95.34
2018-12-21T03:34:50.332Z,95.23
2018-12-21T03:37:20.919Z,95.17
2018-12-21T03:39:51.131Z,95.26
2018-12-21T03:42:30.652Z,94.92
2018-12-21T03:45:04.288Z,94.66
2018-12-21T03:47:37.905Z,95.32
2018-12-21T03:50:08.842Z,95.03
2018-12-21T03:52:39.385Z,94.88
2018-12-21T03:55:09.904Z,94.62
2018-12-21T03:57:40.136Z,94.91
2018-12-21T04:00:11.346Z,94.46
2018-12-21T04:02:41.886Z,94.79
2018-12-21T04:05:12.218Z,94.84
2018-12-21T04:07:43.106Z,94.49
2018-12-21T04:10:19.982Z,95.16
2018-12-21T04:12:50.063Z,95.08
2018-12-21T04:15:21.339Z,95.28
2018-12-21T04:17:51.380Z,95.23
2018-12-21T04:20:28.270Z,95.30
2018-12-21T04:22:59.288Z,95.02
2018-12-21T04:25:30.289Z,95.08
2018-12-21T04:28:00.289Z,95.32
2018-12-21T04:30:34.871Z,95.12
2018-12-21T04:33:12.253Z,94.69
2018-12-21T04:35:42.275Z,94.75
2018-12-21T04:38:13.294Z,95.00
2018-12-21T04:40:43.385Z,94.80
2018-12-21T04:43:14.496Z,94.72
2018-12-21T04:45:50.172Z,94.67
2018-12-21T04:48:22.343Z,94.81
2018-12-21T04:50:52.750Z,95.27
2018-12-21T04:53:22.826Z,94.91
2018-12-21T04:55:59.041Z,95.01
2018-12-21T04:58:29.492Z,95.25
2018-12-21T05:00:59.542Z,95.14
2018-12-21T05:03:31.481Z,95.06
2018-12-21T05:06:03.350Z,94.94
2018-12-21T05:08:33.721Z,95.12
2018-12-21T05:11:09.756Z,95.29
2018-12-21T05:13:42.403Z,95.29
2018-12-21T05:16:13.527Z,94.94
2018-12-21T05:18:47.449Z,95.09
2018-12-21T05:21:21.145Z,95.53
2018-12-21T05:23:51.747Z,95.14
2018-12-21T05:26:22.462Z,95.18
2018-12-21T05:28:53.579Z,95.29
2018-12-21T05:31:30.687Z,94.74
2018-12-21T05:34:03.442Z,95.20
2018-12-21T05:36:35.657Z,95.25
2018-12-21T05:39:07.042Z,95.24
2018-12-21T05:41:39.692Z,95.56
2018-12-21T05:44:10.437Z,95.54
2018-12-21T05:46:40.960Z,95.16
2018-12-21T05:49:11.674Z,95.16
2018-12-21T05:51:41.698Z,95.07
2018-12-21T05:54:12.714Z,95.45
2018-12-21T05:56:43.281Z,95.50
2018-12-21T05:59:14.058Z,95.02
2018-12-21T06:01:44.556Z,94.99
2018-12-21T06:04:14.612Z,95.37
2018-12-21T06:06:45.688Z,95.25
2018-12-21T06:09:19.531Z,95.37
2018-12-21T06:11:49.582Z,95.62
2018-12-21T06:14:20.790Z,95.18
2018-12-21T06:16:51.805Z,95.12
2018-12-21T06:19:22.833Z,95.50
2018-12-21T06:21:55.948Z,95.39
2018-12-21T06:24:26.831Z,95.41
2018-12-21T06:26:57.769Z,95.24
2018-12-21T06:29:28.745Z,95.27
2018-12-21T06:31:58.966Z,94.89
2018-12-21T06:34:33.782Z,95.08
2018-12-21T06:37:05.768Z,94.88
2018-12-21T06:39:37.816Z,94.68
2018-12-21T06:42:11.693Z,94.83
2018-12-21T06:44:41.892Z,94.96
2018-12-21T06:47:11.989Z,94.15
2018-12-21T06:49:42.908Z,94.80
2018-12-21T06:52:13.997Z,95.38
2018-12-21T06:54:44.630Z,95.27
2018-12-21T06:57:14.914Z,95.75
2018-12-21T06:59:51.832Z,95.32
2018-12-21T07:02:23.794Z,95.59
2018-12-21T07:04:59.482Z,95.63
2018-12-21T07:07:30.066Z,95.19
2018-12-21T07:10:00.250Z,95.25
2018-12-21T07:12:31.010Z,95.61
2018-12-21T07:15:02.981Z,95.23
2018-12-21T07:17:33.078Z,94.92
2018-12-21T07:20:07.055Z,95.35
2018-12-21T07:22:38.024Z,94.89
2018-12-21T07:25:09.116Z,94.90
2018-12-21T07:27:39.153Z,94.95
2018-12-21T07:30:11.490Z,95.12
2018-12-21T07:32:43.208Z,94.80
2018-12-21T07:35:16.318Z,94.93
2018-12-21T07:37:48.167Z,95.13
2018-12-21T07:40:22.341Z,94.94
2018-12-21T07:42:58.882Z,94.90
2018-12-21T07:45:29.721Z,95.01
2018-12-21T07:47:59.755Z,94.77
2018-12-21T07:50:30.221Z,94.83
2018-12-21T07:53:01.106Z,94.79
2018-12-21T07:55:31.180Z,94.43
2018-12-21T07:58:02.344Z,94.41
2018-12-21T08:00:32.493Z,94.39
2018-12-21T08:03:03.649Z,94.36
2018-12-21T08:05:34.152Z,94.77
2018-12-21T08:08:05.048Z,94.27
2018-12-21T08:10:38.013Z,94.25
2018-12-21T08:13:09.829Z,94.15
2018-12-21T08:15:40.432Z,94.52
2018-12-21T08:18:13.256Z,94.42
2018-12-21T08:20:44.285Z,94.40
2018-12-21T08:23:15.515Z,94.05
2018-12-21T08:25:54.193Z,94.69
2018-12-21T08:28:25.971Z,94.69
2018-12-21T08:30:56.377Z,95.06
2018-12-21T08:33:33.234Z,94.67
2018-12-21T08:36:03.338Z,94.74
2018-12-21T08:38:34.275Z,95.01
2018-12-21T08:44:07.047Z,95.02
2018-12-21T08:49:38.271Z,95.39
2018-12-21T08:52:08.383Z,95.29
2018-12-21T08:54:39.550Z,95.17
2018-12-21T08:57:15.209Z,94.90
2018-12-21T08:59:46.367Z,95.11
2018-12-21T09:02:17.366Z,95.16
2018-12-21T09:04:57.223Z,95.07
2018-12-21T09:07:28.284Z,94.80
2018-12-21T09:10:00.063Z,94.97
2018-12-21T09:12:32.669Z,94.91
2018-12-21T09:15:05.069Z,94.27
2018-12-21T09:17:35.562Z,95.04
2018-12-21T09:20:15.361Z,95.05
2018-12-21T09:22:45.421Z,94.58
2018-12-21T09:25:16.565Z,94.98
2018-12-21T09:27:49.552Z,95.56
2018-12-21T09:30:20.604Z,94.92
2018-12-21T09:32:51.773Z,94.68
2018-12-21T09:35:22.536Z,95.59
2018-12-21T09:37:56.053Z,95.35
2018-12-21T09:40:26.504Z,94.77
2018-12-21T09:42:57.960Z,95.06
2018-12-21T09:45:28.784Z,94.82
2018-12-21T09:47:59.740Z,94.68
2018-12-21T09:50:33.641Z,94.47
2018-12-21T09:53:04.674Z,94.61
2018-12-21T09:55:35.144Z,94.87
2018-12-21T09:58:06.957Z,94.92
2018-12-21T10:00:38.841Z,94.76
2018-12-21T10:03:12.646Z,94.74
2018-12-21T10:05:43.680Z,95.61
2018-12-21T10:08:13.751Z,95.26
2018-12-21T10:10:50.757Z,94.46
2018-12-21T10:13:22.679Z,94.56
2018-12-21T10:15:59.854Z,94.43
2018-12-21T10:18:33.675Z,93.62
2018-12-21T10:21:03.804Z,94.05
2018-12-21T10:23:40.677Z,93.86
2018-12-21T10:26:12.248Z,93.69
2018-12-21T10:28:42.832Z,93.73
2018-12-21T10:31:13.322Z,93.58
2018-12-21T10:33:44.061Z,93.56
2018-12-21T10:36:14.585Z,94.28
2018-12-21T10:38:45.097Z,94.78
2018-12-21T10:41:15.897Z,94.72
2018-12-21T10:43:46.576Z,94.06
2018-12-21T10:46:17.036Z,95.05
2018-12-21T10:48:47.752Z,94.30
2018-12-21T10:51:17.761Z,95.15
2018-12-21T10:53:48.943Z,94.71
2018-12-21T10:56:22.713Z,94.63
2018-12-21T10:58:53.025Z,94.57
2018-12-21T11:01:23.872Z,94.15
2018-12-21T11:03:59.747Z,94.06
2018-12-21T11:06:32.061Z,94.09
2018-12-21T11:09:05.770Z,94.39
2018-12-21T11:11:36.172Z,93.98
2018-12-21T11:14:11.910Z,94.07
2018-12-21T11:16:43.091Z,94.24
2018-12-21T11:19:18.821Z,95.02
2018-12-21T11:21:50.083Z,95.02
2018-12-21T11:24:22.954Z,93.87
2018-12-21T11:26:54.115Z,94.33
2018-12-21T11:29:27.113Z,94.86
2018-12-21T11:32:00.260Z,95.01
2018-12-21T11:34:30.553Z,93.99
2018-12-21T11:37:00.589Z,94.90
2018-12-21T11:39:34.300Z,94.70
2018-12-21T11:42:08.909Z,94.60
2018-12-21T11:44:41.129Z,93.77
2018-12-21T11:47:16.010Z,94.31
2018-12-21T11:49:47.383Z,94.19
2018-12-21T11:52:18.050Z,93.93
2018-12-21T11:54:48.249Z,93.88
2018-12-21T11:57:19.085Z,93.81
2018-12-21T11:59:50.286Z,93.35
2018-12-21T12:02:26.485Z,93.33
2018-12-21T12:04:57.192Z,93.02
2018-12-21T12:07:28.261Z,93.41
2018-12-21T12:10:03.229Z,93.70
2018-12-21T12:12:35.165Z,94.10
2018-12-21T12:15:06.725Z,92.87
2018-12-21T12:17:37.315Z,92.08
2018-12-21T12:20:09.441Z,92.46
2018-12-21T12:22:41.406Z,91.83
2018-12-21T12:25:12.346Z,92.54
2018-12-21T12:27:42.672Z,91.81
2018-12-21T12:30:13.298Z,92.03
2018-12-21T12:32:43.393Z,92.44
2018-12-21T12:35:14.400Z,91.71
2018-12-21T12:37:45.121Z,91.92
2018-12-21T12:40:15.325Z,91.74
2018-12-21T12:42:46.808Z,91.91
2018-12-21T12:45:16.847Z,91.73
2018-12-21T12:47:47.528Z,91.18
2018-12-21T12:50:18.107Z,91.04
2018-12-21T12:52:48.434Z,90.94
2018-12-21T12:55:22.249Z,90.79
2018-12-21T12:57:52.362Z,90.42
2018-12-21T13:00:23.588Z,90.97
2018-12-21T13:02:57.399Z,90.84
2018-12-21T13:05:28.412Z,91.08
2018-12-21T13:07:59.385Z,91.02
2018-12-21T13:10:29.889Z,91.50
2018-12-21T13:13:00.801Z,90.96
2018-12-21T13:15:33.893Z,90.80
2018-12-21T13:18:07.692Z,91.05
2018-12-21T13:20:41.356Z,91.26
2018-12-21T13:23:12.457Z,90.83
2018-12-21T13:25:46.432Z,91.24
2018-12-21T13:28:16.566Z,91.21
2018-12-21T13:30:47.498Z,90.18
2018-12-21T13:36:17.537Z,90.79
2018-12-21T13:38:49.677Z,91.11
2018-12-21T13:41:22.681Z,90.90
2018-12-21T13:43:54.217Z,90.90
2018-12-21T13:46:26.766Z,90.70
2018-12-21T13:48:57.640Z,90.96
2018-12-21T13:51:29.304Z,90.71
2018-12-21T13:54:00.300Z,90.08
2018-12-21T13:56:32.725Z,90.33
2018-12-21T13:59:03.657Z,90.08
2018-12-21T14:01:33.725Z,91.08
2018-12-21T14:07:04.134Z,90.61
2018-12-21T14:09:35.807Z,91.48
2018-12-21T14:12:06.757Z,90.88
2018-12-21T14:14:37.993Z,91.33
2018-12-21T14:17:10.080Z,91.25
2018-12-21T14:19:41.688Z,90.69
2018-12-21T14:22:13.178Z,89.53
2018-12-21T14:24:43.489Z,88.35
2018-12-21T14:27:19.739Z,88.58
2018-12-21T14:29:50.797Z,87.35
2018-12-21T14:32:21.949Z,87.60
2018-12-21T14:35:00.295Z,87.73
2018-12-21T14:37:32.112Z,87.56
2018-12-21T14:40:08.738Z,87.76
2018-12-21T14:42:38.784Z,89.46
2018-12-21T14:45:10.084Z,89.57
2018-12-21T14:47:41.505Z,89.35
2018-12-21T14:50:15.110Z,89.96
2018-12-21T14:52:50.962Z,91.03
2018-12-21T14:55:21.139Z,91.66
2018-12-21T14:57:54.803Z,92.23
2018-12-21T15:00:25.937Z,91.84
2018-12-21T15:02:56.517Z,90.80
2018-12-21T15:05:27.871Z,90.42
2018-12-21T15:08:00.828Z,90.23
2018-12-21T15:10:31.401Z,90.18
2018-12-21T15:13:04.169Z,90.15
2018-12-21T15:15:38.933Z,90.85
2018-12-21T15:18:10.977Z,91.04
2018-12-21T15:20:43.273Z,90.72
2018-12-21T15:23:14.149Z,90.22
2018-12-21T15:25:46.122Z,89.43
2018-12-21T15:28:18.082Z,89.74
2018-12-21T15:30:49.300Z,89.40
2018-12-21T15:33:20.237Z,89.83
2018-12-21T15:35:51.196Z,90.84
2018-12-21T15:38:21.261Z,90.82
2018-12-21T15:40:52.185Z,90.52
2018-12-21T15:43:23.216Z,91.69
2018-12-21T15:45:56.110Z,91.28
2018-12-21T15:48:27.230Z,91.41
2018-12-21T15:50:58.696Z,91.65
2018-12-21T15:53:31.195Z,90.81
2018-12-21T15:56:01.259Z,90.88
2018-12-21T15:58:31.289Z,90.61
2018-12-21T16:01:01.374Z,90.36
2018-12-21T16:03:33.217Z,90.38
2018-12-21T16:06:04.417Z,89.99
2018-12-21T16:08:40.885Z,90.60
2018-12-21T16:11:17.142Z,91.31
2018-12-21T16:13:48.273Z,90.31
2018-12-21T16:16:19.392Z,91.05
2018-12-21T16:18:52.437Z,90.70
2018-12-21T16:21:23.329Z,90.37
2018-12-21T16:23:54.406Z,90.29
2018-12-21T16:26:24.438Z,90.25
2018-12-21T16:28:58.365Z,89.31
2018-12-21T16:31:29.302Z,90.07
2018-12-21T16:34:00.512Z,89.39
2018-12-21T16:36:40.470Z,88.62
2018-12-21T16:39:16.594Z,88.59
2018-12-21T16:41:47.470Z,89.18
2018-12-21T16:44:18.431Z,89.12
2018-12-21T16:46:58.336Z,90.29
2018-12-21T16:49:28.408Z,89.97
2018-12-21T16:52:00.385Z,90.35
2018-12-21T16:54:32.475Z,90.96
2018-12-21T16:57:03.770Z,90.97
2018-12-21T16:59:34.589Z,91.33
2018-12-21T17:02:10.665Z,92.58
2018-12-21T17:04:42.400Z,92.99
2018-12-21T17:07:21.388Z,92.87
2018-12-21T17:09:52.593Z,93.97
2018-12-21T17:12:24.606Z,93.55
2018-12-21T17:14:58.763Z,94.27
2018-12-21T17:17:29.503Z,94.13
2018-12-21T17:19:59.557Z,94.59
2018-12-21T17:22:30.426Z,94.13
2018-12-21T17:25:00.589Z,93.99
2018-12-21T17:27:31.590Z,94.93
2018-12-21T17:30:02.397Z,94.59
2018-12-21T17:32:32.850Z,93.94
2018-12-21T17:38:04.241Z,95.28
2018-12-21T17:40:35.796Z,94.17
2018-12-21T17:43:06.234Z,95.02
2018-12-21T17:45:36.773Z,94.66
2018-12-21T17:48:09.246Z,95.80
2018-12-21T17:50:43.555Z,95.46
2018-12-21T17:53:14.740Z,95.78
2018-12-21T17:55:45.940Z,96.25
2018-12-21T17:58:19.746Z,95.80
2018-12-21T18:00:50.092Z,95.64
2018-12-21T18:03:30.276Z,95.63
2018-12-21T18:06:00.595Z,95.73
2018-12-21T18:08:30.723Z,95.67
2018-12-21T18:11:01.195Z,95.24
2018-12-21T18:13:31.836Z,95.48
2018-12-21T18:16:03.861Z,95.22
2018-12-21T18:18:36.073Z,96.29
2018-12-21T18:21:06.849Z,95.94
2018-12-21T18:23:40.782Z,95.55
2018-12-21T18:26:10.798Z,96.13
2018-12-21T18:28:40.945Z,96.66
2018-12-21T18:31:25.064Z,95.93
2018-12-21T18:33:58.017Z,95.52
2018-12-21T18:36:33.692Z,96.51
2018-12-21T18:39:04.805Z,96.33
2018-12-21T18:41:34.947Z,96.25
2018-12-21T18:47:06.477Z,96.75
2018-12-21T18:49:40.687Z,96.27
2018-12-21T18:52:11.111Z,96.13
2018-12-21T18:54:42.331Z,95.84
2018-12-21T18:57:16.308Z,96.07
2018-12-21T18:59:49.110Z,95.85
2018-12-21T19:02:20.886Z,95.69
2018-12-21T19:04:55.296Z,95.73
2018-12-21T19:07:28.028Z,95.49
2018-12-21T19:09:59.005Z,96.06
2018-12-21T19:12:29.027Z,95.49
2018-12-21T19:14:59.977Z,95.89
2018-12-21T19:17:30.898Z,96.28
2018-12-21T19:20:01.138Z,96.29
2018-12-21T19:22:32.036Z,96.44
2018-12-21T19:28:03.092Z,95.73
2018-12-21T19:30:34.775Z,95.75
2018-12-21T19:33:05.546Z,95.25
2018-12-21T19:35:38.204Z,94.93
2018-12-21T19:38:11.421Z,96.26
2018-12-21T19:40:45.107Z,96.30
2018-12-21T19:43:16.241Z,95.81
2018-12-21T19:45:47.182Z,96.05
2018-12-21T19:48:20.184Z,96.88
2018-12-21T19:50:51.127Z,97.18
2018-12-21T19:53:22.258Z,96.98
2018-12-21T19:55:58.508Z,96.39
2018-12-21T19:58:29.375Z,96.61
2018-12-21T20:01:00.366Z,96.05
2018-12-21T20:03:31.211Z,96.65
2018-12-21T20:06:01.465Z,96.13
2018-12-21T20:08:33.322Z,96.70
2018-12-21T20:11:04.611Z,95.92
2018-12-21T20:13:40.367Z,95.68
2018-12-21T20:16:11.664Z,95.91
2018-12-21T20:18:44.273Z,95.92
2018-12-21T20:21:15.332Z,96.01
2018-12-21T20:24:04.895Z,95.00
2018-12-21T20:26:35.742Z,95.68
2018-12-21T20:29:08.428Z,94.40
2018-12-21T20:31:41.493Z,93.36
2018-12-21T20:34:15.678Z,93.10
2018-12-21T20:36:49.273Z,93.60
2018-12-21T20:39:22.509Z,93.94
2018-12-21T20:41:56.742Z,94.25
2018-12-21T20:44:26.799Z,93.55
2018-12-21T20:46:59.136Z,93.34
2018-12-21T20:49:31.694Z,92.12
2018-12-21T20:52:01.756Z,92.08
2018-12-21T20:54:39.283Z,91.35
2018-12-21T20:57:12.913Z,90.56
2018-12-21T20:59:44.156Z,88.95
2018-12-21T21:02:20.758Z,89.45
2018-12-21T21:04:59.724Z,89.16
2018-12-21T21:07:33.437Z,88.47
2018-12-21T21:10:05.495Z,88.79
2018-12-21T21:12:35.511Z,87.77
2018-12-21T21:15:07.384Z,88.44
2018-12-21T21:17:39.644Z,87.36
2018-12-21T21:20:13.028Z,87.78
2018-12-21T21:22:44.608Z,88.71
2018-12-21T21:25:16.773Z,88.35
2018-12-21T21:27:47.621Z,88.35
2018-12-21T21:30:19.453Z,87.82
2018-12-21T21:32:49.615Z,88.58
2018-12-21T21:35:19.712Z,88.03
2018-12-21T21:37:49.722Z,87.65
2018-12-21T21:43:24.160Z,87.25
2018-12-21T21:45:55.768Z,88.37
2018-12-21T21:48:25.769Z,87.65
2018-12-21T21:50:59.505Z,88.34
2018-12-21T21:53:48.998Z,88.03
2018-12-21T21:56:21.725Z,87.00
2018-12-21T21:58:52.849Z,87.53
2018-12-21T22:01:23.837Z,87.33
2018-12-21T22:03:57.629Z,87.24
2018-12-21T22:06:27.697Z,88.12
2018-12-21T22:08:59.194Z,87.63
2018-12-21T22:11:29.834Z,87.52
2018-12-21T22:14:00.882Z,87.43
2018-12-21T22:16:33.805Z,86.98
2018-12-21T22:19:04.917Z,86.84
2018-12-21T22:21:35.887Z,87.82
2018-12-21T22:24:09.661Z,87.91
2018-12-21T22:26:41.203Z,87.97
2018-12-21T22:29:19.980Z,87.70
2018-12-21T22:31:52.965Z,87.41
2018-12-21T22:34:30.533Z,86.68
2018-12-21T22:37:00.998Z,86.72
2018-12-21T22:39:31.135Z,86.19
2018-12-21T22:42:01.362Z,86.76
2018-12-21T22:44:32.114Z,86.50
2018-12-21T22:47:09.820Z,86.95
2018-12-21T22:49:42.019Z,87.17
2018-12-21T22:52:12.981Z,86.83
2018-12-21T22:54:47.499Z,87.17
2018-12-21T22:57:20.084Z,86.96
2018-12-21T22:59:51.153Z,86.30
2018-12-21T23:02:22.964Z,87.18
2018-12-21T23:04:58.984Z,86.71
2018-12-21T23:07:29.005Z,86.70
2018-12-21T23:09:59.988Z,86.13
2018-12-21T23:12:30.124Z,85.78
2018-12-21T23:15:04.591Z,86.00
2018-12-21T23:17:35.474Z,86.26
2018-12-21T23:20:06.495Z,85.66
2018-12-21T23:22:37.106Z,85.83
2018-12-21T23:25:07.582Z,85.16
2018-12-21T23:27:40.949Z,85.96
2018-12-21T23:30:12.409Z,84.76
2018-12-21T23:32:43.131Z,85.41
2018-12-21T23:35:13.173Z,86.12
2018-12-21T23:37:44.198Z,85.87
2018-12-21T23:40:15.408Z,85.36
2018-12-21T23:42:48.295Z,85.03
2018-12-21T23:45:21.225Z,84.94
2018-12-21T23:47:52.561Z,84.29
2018-12-21T23:50:25.317Z,84.35
2018-12-21T23:52:56.230Z,84.64
2018-12-21T23:55:27.253Z,84.69
2018-12-21T23:58:00.233Z,84.90
